Time;durP1;ratioP1;P1;durP2;ratioP2;P2;SDS_P1;SDS_P2;PMS_P1;PMS_P2;Temp;Humidity;BMP_temperature;BMP_pressure;BME280_temperature;BME280_humidity;BME280_pressure;Samples;Min_cycle;Max_cycle;Signal;HPM_P1;HPM_P2
2022/01/03 00:00:43;;;;;;;56.92;38.22;;;8.90;99.90;;;;;;5055324;28;20181;-72
2022/01/03 00:03:12;;;;;;;50.30;36.25;;;8.80;99.90;;;;;;5055276;28;20209;-69
2022/01/03 00:05:42;;;;;;;56.58;41.65;;;8.80;99.90;;;;;;5038437;28;20177;-71
2022/01/03 00:08:10;;;;;;;54.60;37.50;;;8.80;99.90;;;;;;5038375;28;20206;-69
2022/01/03 00:10:38;;;;;;;62.40;39.58;;;8.70;99.90;;;;;;5054762;28;20311;-72
2022/01/03 00:13:12;;;;;;;60.03;39.28;;;8.70;99.90;;;;;;5054617;28;20320;-72
2022/01/03 00:15:40;;;;;;;59.30;39.25;;;8.60;99.90;;;;;;5038208;28;20316;-72
2022/01/03 00:18:08;;;;;;;52.17;40.42;;;8.50;99.90;;;;;;5038379;28;20213;-72
2022/01/03 00:20:38;;;;;;;50.97;36.25;;;8.50;99.90;;;;;;5054796;28;20170;-71
2022/01/03 00:23:09;;;;;;;60.22;37.83;;;8.50;99.90;;;;;;5037897;28;20208;-71
2022/01/03 00:25:42;;;;;;;59.42;40.05;;;8.40;99.90;;;;;;5054748;28;20176;-71
2022/01/03 00:28:34;;;;;;;52.08;37.70;;;8.40;99.90;;;;;;5054563;28;20293;-70
2022/01/03 00:31:06;;;;;;;52.90;38.25;;;8.30;99.90;;;;;;5054481;28;20328;-69
2022/01/03 00:33:34;;;;;;;60.75;41.50;;;8.30;99.90;;;;;;5054656;28;20206;-71
2022/01/03 00:36:10;;;;;;;61.60;44.22;;;8.20;99.90;;;;;;5054617;28;20174;-72
2022/01/03 00:38:40;;;;;;;58.67;41.83;;;8.20;99.90;;;;;;5054610;28;20263;-72
2022/01/03 00:41:09;;;;;;;55.58;38.25;;;8.20;99.90;;;;;;5054309;28;20170;-71
2022/01/03 00:43:43;;;;;;;52.75;36.55;;;8.20;99.90;;;;;;5054438;28;20213;-69
2022/01/03 00:46:13;;;;;;;61.30;38.90;;;8.20;99.90;;;;;;5054382;28;20196;-69
2022/01/03 00:48:43;;;;;;;56.15;37.30;;;8.20;99.90;;;;;;5054534;28;20670;-69
2022/01/03 00:51:17;;;;;;;52.90;38.75;;;8.10;99.90;;;;;;5054370;28;20631;-69
2022/01/03 00:53:44;;;;;;;50.13;34.13;;;8.10;99.90;;;;;;5053880;28;20292;-69
2022/01/03 00:56:33;;;;;;;55.45;36.53;;;8.10;99.90;;;;;;5037583;28;20186;-69
2022/01/03 00:59:00;;;;;;;58.70;36.35;;;8.10;99.90;;;;;;5037676;28;20563;-71
2022/01/03 01:01:37;;;;;;;54.40;36.45;;;8.00;99.90;;;;;;5036485;28;20208;-71
2022/01/03 01:04:07;;;;;;;49.95;35.22;;;8.00;99.90;;;;;;5054280;28;20201;-69
2022/01/03 01:06:38;;;;;;;50.55;33.17;;;8.10;99.90;;;;;;5053616;28;20198;-69
2022/01/03 01:09:12;;;;;;;55.03;35.45;;;8.10;99.90;;;;;;5053861;28;20568;-69
2022/01/03 01:11:43;;;;;;;41.63;30.08;;;8.10;99.90;;;;;;5053631;28;20220;-71
2022/01/03 01:14:12;;;;;;;43.08;31.42;;;8.00;99.90;;;;;;5048710;28;20698;-69
2022/01/03 01:16:41;;;;;;;42.45;29.70;;;8.10;99.90;;;;;;5035304;28;20179;-71
2022/01/03 01:19:09;;;;;;;44.75;31.48;;;8.10;99.90;;;;;;5050315;28;20194;-69
2022/01/03 01:21:38;;;;;;;39.03;28.90;;;8.10;99.90;;;;;;5050217;28;20209;-69
2022/01/03 01:24:11;;;;;;;45.90;29.80;;;8.20;99.90;;;;;;5050497;28;20205;-70
2022/01/03 01:29:28;;;;;;;41.47;27.50;;;8.20;99.90;;;;;;5035441;28;20232;-70
2022/01/03 01:32:10;;;;;;;45.40;29.15;;;8.20;99.90;;;;;;5049879;28;20242;-73
2022/01/03 01:34:43;;;;;;;36.75;25.85;;;8.30;99.90;;;;;;5033253;28;20220;-69
2022/01/03 01:37:18;;;;;;;38.47;26.92;;;8.30;99.90;;;;;;5050170;28;20197;-71
2022/01/03 01:39:49;;;;;;;39.53;26.38;;;8.30;99.90;;;;;;5050069;28;20185;-71
2022/01/03 01:42:17;;;;;;;34.83;24.65;;;8.30;99.90;;;;;;5049655;28;20259;-71
2022/01/03 01:44:50;;;;;;;34.83;24.95;;;8.40;99.90;;;;;;5049565;28;20202;-69
2022/01/03 01:47:20;;;;;;;35.40;25.20;;;8.40;99.90;;;;;;5049663;28;20670;-69
2022/01/03 01:49:49;;;;;;;39.47;25.83;;;8.40;99.90;;;;;;5049670;28;20331;-69
2022/01/03 01:52:24;;;;;;;34.92;23.75;;;8.40;99.90;;;;;;5049798;28;20230;-69
2022/01/03 01:54:59;;;;;;;40.80;26.85;;;8.40;99.90;;;;;;5049756;28;20548;-69
2022/01/03 01:57:48;;;;;;;35.00;24.88;;;8.40;99.90;;;;;;5050000;28;20622;-69
2022/01/03 02:00:23;;;;;;;35.15;23.77;;;8.40;99.90;;;;;;5032733;28;20269;-69
2022/01/03 02:03:18;;;;;;;30.95;22.80;;;8.40;99.90;;;;;;5049517;28;20208;-70
2022/01/03 02:05:55;;;;;;;32.17;23.83;;;8.40;99.90;;;;;;5033339;28;20186;-69
2022/01/03 02:08:33;;;;;;;32.67;24.17;;;8.40;99.90;;;;;;5049710;28;20252;-71
2022/01/03 02:11:15;;;;;;;33.85;23.80;;;8.40;99.90;;;;;;5049728;28;20178;-69
2022/01/03 02:13:44;;;;;;;27.45;22.02;;;8.40;99.90;;;;;;5049268;28;20234;-71
2022/01/03 02:16:20;;;;;;;33.00;21.70;;;8.40;99.90;;;;;;5032844;28;20662;-69
2022/01/03 02:18:51;;;;;;;31.95;23.40;;;8.40;99.90;;;;;;5049278;28;20294;-72
2022/01/03 02:21:19;;;;;;;32.70;24.15;;;8.40;99.90;;;;;;5048928;28;20540;-71
2022/01/03 02:23:46;;;;;;;31.30;23.02;;;8.40;99.90;;;;;;5049403;28;20206;-71
2022/01/03 02:26:14;;;;;;;31.20;22.90;;;8.40;99.90;;;;;;5048362;28;20174;-69
2022/01/03 02:28:42;;;;;;;32.17;23.00;;;8.40;99.90;;;;;;5049205;28;20237;-71
2022/01/03 02:31:10;;;;;;;29.63;22.48;;;8.40;99.90;;;;;;5049175;28;20220;-69
2022/01/03 02:33:38;;;;;;;33.75;22.92;;;8.40;99.90;;;;;;5032110;28;20290;-69
2022/01/03 02:36:08;;;;;;;31.90;23.00;;;8.40;99.90;;;;;;5048572;28;20636;-69
2022/01/03 02:38:36;;;;;;;29.70;21.83;;;8.40;99.90;;;;;;5048418;28;20259;-69
2022/01/03 02:41:03;;;;;;;35.22;24.20;;;8.40;99.90;;;;;;5049153;28;20182;-71
2022/01/03 02:43:29;;;;;;;33.42;24.13;;;8.40;99.90;;;;;;5049109;28;20268;-72
2022/01/03 02:45:56;;;;;;;32.03;24.17;;;8.40;99.90;;;;;;5049199;28;20182;-69
2022/01/03 02:48:22;;;;;;;31.02;22.75;;;8.40;99.90;;;;;;5048998;28;20210;-71
2022/01/03 02:50:49;;;;;;;33.33;23.77;;;8.50;99.90;;;;;;5048997;28;20171;-69
2022/01/03 02:53:17;;;;;;;33.30;22.88;;;8.50;99.90;;;;;;5034059;28;20206;-69
2022/01/03 02:55:43;;;;;;;32.38;22.50;;;8.50;99.90;;;;;;5048902;28;20183;-69
2022/01/03 02:58:11;;;;;;;31.92;22.20;;;8.60;99.90;;;;;;5048846;28;20567;-69
2022/01/03 03:00:51;;;;;;;27.63;20.60;;;8.60;99.90;;;;;;5049138;28;20206;-70
2022/01/03 03:03:23;;;;;;;31.63;21.90;;;8.60;99.90;;;;;;5032469;28;20206;-72
2022/01/03 03:05:53;;;;;;;28.55;21.25;;;8.60;99.90;;;;;;5033579;28;20201;-69
2022/01/03 03:08:20;;;;;;;28.17;21.33;;;8.70;99.90;;;;;;5049002;28;20213;-69
2022/01/03 03:10:48;;;;;;;24.92;20.20;;;8.70;99.90;;;;;;5049066;28;20588;-69
2022/01/03 03:13:14;;;;;;;26.80;20.23;;;8.70;99.90;;;;;;5037887;28;20260;-70
2022/01/03 03:15:43;;;;;;;26.17;19.75;;;8.70;99.90;;;;;;5052047;28;20177;-71
2022/01/03 03:18:15;;;;;;;27.27;21.25;;;8.70;99.90;;;;;;5052189;28;20211;-71
2022/01/03 03:20:44;;;;;;;32.83;20.20;;;8.70;99.90;;;;;;5051889;28;20586;-69
2022/01/03 03:23:23;;;;;;;26.38;20.55;;;8.80;99.90;;;;;;5050824;28;20300;-71
2022/01/03 03:25:58;;;;;;;26.20;20.90;;;8.80;99.90;;;;;;5051647;28;20179;-69
2022/01/03 03:28:25;;;;;;;27.48;20.70;;;8.80;99.90;;;;;;5052228;28;20604;-71
2022/01/03 03:31:30;;;;;;;26.70;19.80;;;8.80;99.90;;;;;;5051847;28;20177;-71
2022/01/03 03:34:01;;;;;;;25.85;19.35;;;8.80;99.90;;;;;;5031827;28;20583;-72
2022/01/03 03:36:29;;;;;;;27.13;18.85;;;8.80;99.90;;;;;;5052039;28;20212;-72
2022/01/03 03:39:01;;;;;;;26.55;20.25;;;8.80;99.90;;;;;;5038797;28;20197;-71
2022/01/03 03:41:31;;;;;;;26.85;20.42;;;8.80;99.90;;;;;;5054010;28;20538;-69
2022/01/03 03:44:01;;;;;;;28.40;20.20;;;8.70;99.90;;;;;;5038719;28;20190;-71
2022/01/03 03:46:29;;;;;;;26.63;20.08;;;8.80;99.90;;;;;;5056642;28;20661;-72
2022/01/03 03:48:58;;;;;;;25.92;19.17;;;8.80;99.90;;;;;;5056514;28;20530;-69
2022/01/03 03:51:28;;;;;;;24.23;18.80;;;8.80;99.90;;;;;;5055290;28;20217;-71
2022/01/03 03:53:54;;;;;;;23.80;18.15;;;8.80;99.90;;;;;;5038801;28;20284;-71
2022/01/03 03:56:31;;;;;;;24.27;17.85;;;8.80;99.90;;;;;;5054213;28;20276;-69
2022/01/03 03:58:57;;;;;;;25.17;18.25;;;8.80;99.90;;;;;;5055551;28;20658;-69
2022/01/03 04:01:25;;;;;;;23.38;18.42;;;8.90;99.90;;;;;;5055326;28;20186;-71
2022/01/03 04:03:52;;;;;;;22.10;17.38;;;8.90;99.90;;;;;;5055121;28;20271;-69
2022/01/03 04:06:22;;;;;;;23.23;18.02;;;8.90;99.90;;;;;;5055292;28;20170;-71
2022/01/03 04:09:01;;;;;;;21.77;17.08;;;8.90;99.90;;;;;;5054264;28;20221;-71
2022/01/03 04:11:30;;;;;;;27.25;19.45;;;8.90;99.90;;;;;;5054626;28;20662;-71
2022/01/03 04:13:57;;;;;;;25.38;17.83;;;8.90;99.90;;;;;;5056086;28;20225;-69
2022/01/03 04:16:24;;;;;;;22.27;17.65;;;8.90;99.90;;;;;;5054877;28;20178;-69
2022/01/03 04:18:52;;;;;;;22.55;18.90;;;8.90;99.90;;;;;;5054698;28;20292;-69
2022/01/03 04:21:27;;;;;;;26.00;18.60;;;8.90;99.90;;;;;;5055977;28;20177;-69
2022/01/03 04:23:56;;;;;;;24.35;18.15;;;8.90;99.90;;;;;;5038448;28;20685;-69
2022/01/03 04:26:24;;;;;;;21.25;17.45;;;8.90;99.90;;;;;;5054663;28;20185;-71
2022/01/03 04:28:51;;;;;;;25.02;17.63;;;8.90;99.90;;;;;;5055841;28;20185;-72
2022/01/03 04:31:18;;;;;;;22.00;16.65;;;8.90;99.90;;;;;;5054304;28;20205;-72
2022/01/03 04:33:47;;;;;;;21.30;16.77;;;8.90;99.90;;;;;;5054450;28;20198;-72
2022/01/03 04:36:13;;;;;;;24.05;17.23;;;8.90;99.90;;;;;;5054613;28;20588;-70
2022/01/03 04:38:40;;;;;;;22.48;18.00;;;8.90;99.90;;;;;;5054653;28;20292;-69
2022/01/03 04:41:06;;;;;;;22.13;17.35;;;8.90;99.90;;;;;;5055087;28;20185;-69
2022/01/03 04:43:42;;;;;;;19.63;17.17;;;9.00;99.90;;;;;;5054506;28;20309;-72
2022/01/03 04:46:12;;;;;;;21.92;16.95;;;9.00;99.90;;;;;;5054434;28;20182;-69
2022/01/03 04:48:45;;;;;;;20.33;15.60;;;9.00;99.90;;;;;;5054622;28;20198;-69
2022/01/03 04:51:14;;;;;;;21.35;15.75;;;9.00;99.90;;;;;;5054308;28;20202;-72
2022/01/03 04:53:42;;;;;;;24.50;16.98;;;9.00;99.90;;;;;;5054153;28;20201;-70
2022/01/03 04:56:44;;;;;;;18.92;15.10;;;9.10;99.90;;;;;;5054275;28;20572;-73
2022/01/03 04:59:11;;;;;;;22.77;15.68;;;9.10;99.90;;;;;;5028768;28;20353;-69
2022/01/03 05:01:40;;;;;;;21.17;16.42;;;9.10;99.90;;;;;;5054103;28;20202;-69
2022/01/03 05:04:08;;;;;;;20.48;14.15;;;9.10;99.90;;;;;;5053967;28;20581;-69
2022/01/03 05:06:37;;;;;;;17.90;14.35;;;9.20;99.90;;;;;;5054015;28;20202;-69
2022/01/03 05:09:04;;;;;;;18.30;13.73;;;9.20;99.90;;;;;;5036917;28;20202;-73
2022/01/03 05:11:36;;;;;;;18.77;14.30;;;9.20;99.90;;;;;;5053795;28;20797;-71
2022/01/03 05:14:03;;;;;;;17.00;14.25;;;9.30;99.90;;;;;;5053910;28;20441;-70
2022/01/03 05:16:30;;;;;;;17.23;13.55;;;9.40;99.90;;;;;;5053994;28;20181;-72
2022/01/03 05:18:57;;;;;;;16.42;13.60;;;9.40;99.90;;;;;;5055198;28;20220;-71
2022/01/03 05:21:25;;;;;;;15.43;12.77;;;9.40;99.90;;;;;;5053596;28;20531;-73
2022/01/03 05:23:58;;;;;;;15.75;13.30;;;9.50;99.90;;;;;;5053495;28;20202;-71
2022/01/03 05:26:31;;;;;;;18.27;13.95;;;9.50;99.90;;;;;;5065590;28;20197;-72
2022/01/03 05:29:03;;;;;;;17.27;12.77;;;9.50;99.90;;;;;;5055453;28;20311;-72
2022/01/03 05:31:29;;;;;;;16.90;13.90;;;9.50;99.90;;;;;;5055247;28;20209;-69
2022/01/03 05:34:00;;;;;;;15.93;12.95;;;9.60;99.90;;;;;;5055323;28;20204;-71
2022/01/03 05:36:30;;;;;;;16.85;13.52;;;9.60;99.90;;;;;;5053950;28;20196;-70
2022/01/03 05:38:57;;;;;;;17.67;12.95;;;9.60;99.90;;;;;;5055045;28;20295;-69
2022/01/03 05:41:25;;;;;;;18.90;13.80;;;9.60;99.90;;;;;;5054422;28;20184;-72
2022/01/03 05:43:52;;;;;;;17.63;11.98;;;9.70;99.90;;;;;;5060829;28;20211;-74
2022/01/03 05:46:20;;;;;;;17.08;13.35;;;9.60;99.90;;;;;;5052532;28;20178;-72
2022/01/03 05:48:49;;;;;;;19.80;13.88;;;9.60;99.90;;;;;;5051562;28;20682;-70
2022/01/03 05:51:16;;;;;;;23.10;16.23;;;9.60;99.90;;;;;;5053512;28;20212;-69
2022/01/03 05:53:46;;;;;;;21.52;14.45;;;9.60;99.90;;;;;;5052677;28;20203;-73
2022/01/03 05:56:14;;;;;;;18.98;14.70;;;9.60;99.90;;;;;;5032662;28;20300;-69
2022/01/03 05:58:42;;;;;;;19.48;15.25;;;9.70;99.90;;;;;;5043974;28;20219;-73
2022/01/03 06:01:11;;;;;;;21.55;15.82;;;9.70;99.90;;;;;;5053834;28;20646;-69
2022/01/03 06:03:40;;;;;;;18.70;14.52;;;9.70;99.90;;;;;;5054572;28;20216;-71
2022/01/03 06:08:36;;;;;;;18.60;14.38;;;9.70;99.90;;;;;;5072023;28;20204;-72
2022/01/03 06:11:08;;;;;;;19.38;15.65;;;9.80;99.90;;;;;;5054699;28;20279;-69
2022/01/03 06:13:41;;;;;;;19.05;15.20;;;9.80;99.90;;;;;;5054046;28;20283;-69
2022/01/03 06:16:14;;;;;;;21.45;16.63;;;9.80;99.90;;;;;;5072626;28;20189;-69
2022/01/03 06:18:43;;;;;;;22.35;16.40;;;9.80;99.90;;;;;;5055599;28;20216;-69
2022/01/03 06:21:15;;;;;;;23.15;17.58;;;9.80;99.90;;;;;;5055593;28;20283;-72
2022/01/03 06:23:46;;;;;;;22.20;17.75;;;9.80;99.90;;;;;;5055242;28;20217;-69
2022/01/03 06:26:13;;;;;;;18.48;16.23;;;9.80;99.90;;;;;;5054860;28;20673;-71
2022/01/03 06:28:40;;;;;;;19.60;14.10;;;9.70;99.90;;;;;;5054150;28;20563;-71
2022/01/03 06:31:07;;;;;;;19.02;14.65;;;9.80;99.90;;;;;;5055945;28;20640;-72
2022/01/03 06:33:34;;;;;;;16.17;13.73;;;9.70;99.90;;;;;;5055191;28;20611;-69
2022/01/03 06:36:07;;;;;;;16.33;13.32;;;9.70;99.90;;;;;;5051874;28;20185;-71
2022/01/03 06:38:37;;;;;;;19.00;13.90;;;9.70;99.90;;;;;;5038285;28;20208;-69
2022/01/03 06:41:07;;;;;;;17.27;13.45;;;9.60;99.90;;;;;;5056407;28;20223;-70
2022/01/03 06:43:33;;;;;;;16.27;13.48;;;9.60;99.90;;;;;;5052492;28;20520;-71
2022/01/03 06:46:04;;;;;;;19.87;14.50;;;9.50;99.90;;;;;;5050822;28;20189;-69
2022/01/03 06:48:36;;;;;;;15.55;12.63;;;9.50;99.90;;;;;;5053059;28;20515;-71
2022/01/03 06:51:06;;;;;;;17.45;13.88;;;9.50;99.90;;;;;;5053663;28;20221;-72
2022/01/03 06:53:32;;;;;;;14.85;12.40;;;9.50;99.90;;;;;;5053141;28;20331;-69
2022/01/03 06:56:05;;;;;;;17.50;13.23;;;9.50;99.90;;;;;;5052096;28;20264;-72
2022/01/03 06:58:38;;;;;;;15.50;12.50;;;9.40;99.90;;;;;;5053102;28;20244;-72
2022/01/03 07:01:07;;;;;;;17.15;12.88;;;9.50;99.90;;;;;;5047453;28;20713;-71
2022/01/03 07:03:57;;;;;;;15.25;12.73;;;9.50;99.90;;;;;;5052845;28;20745;-71
2022/01/03 07:06:25;;;;;;;16.60;12.60;;;9.50;99.90;;;;;;5050378;28;20177;-72
2022/01/03 07:12:11;;;;;;;12.55;10.20;;;9.50;99.90;;;;;;5071399;28;20292;-71
2022/01/03 07:19:59;;;;;;;14.82;11.13;;;9.70;99.90;;;;;;5039294;28;20231;-72
2022/01/03 07:22:26;;;;;;;15.82;10.98;;;9.80;99.90;;;;;;5061037;28;20214;-69
2022/01/03 07:24:58;;;;;;;14.18;11.23;;;9.80;99.90;;;;;;5052195;28;20278;-68
2022/01/03 07:27:35;;;;;;;13.70;10.57;;;9.90;99.90;;;;;;5035255;28;20213;-69
2022/01/03 07:30:05;;;;;;;12.60;10.15;;;9.90;99.90;;;;;;5052555;28;20216;-71
2022/01/03 07:32:32;;;;;;;11.68;10.20;;;10.00;99.90;;;;;;5049411;28;20706;-72
2022/01/03 07:34:59;;;;;;;13.07;10.13;;;10.00;99.90;;;;;;5041539;28;20189;-69
2022/01/03 07:37:26;;;;;;;12.82;11.13;;;10.00;99.90;;;;;;5063790;28;20232;-71
2022/01/03 07:39:58;;;;;;;11.90;10.23;;;10.10;99.90;;;;;;5058887;28;20190;-71
2022/01/03 07:42:25;;;;;;;12.70;10.10;;;10.10;99.90;;;;;;5048595;28;20232;-69
2022/01/03 07:44:51;;;;;;;13.25;10.80;;;10.20;99.90;;;;;;5053507;28;20189;-69
2022/01/03 07:47:19;;;;;;;15.80;11.10;;;10.20;99.90;;;;;;5059053;28;20207;-71
2022/01/03 07:49:48;;;;;;;13.75;10.65;;;10.20;99.90;;;;;;5047276;28;20196;-72
2022/01/03 07:52:14;;;;;;;12.30;10.13;;;10.20;99.90;;;;;;5047696;28;20759;-69
2022/01/03 07:54:51;;;;;;;13.27;10.35;;;10.20;99.90;;;;;;5042854;28;20744;-71
2022/01/03 07:57:27;;;;;;;11.20;9.85;;;10.30;99.90;;;;;;5034898;28;20217;-72
2022/01/03 07:59:55;;;;;;;12.38;10.15;;;10.30;99.90;;;;;;5043909;28;20213;-71
2022/01/03 08:02:24;;;;;;;13.23;10.23;;;10.30;99.90;;;;;;5053538;28;20304;-69
2022/01/03 08:04:51;;;;;;;12.70;9.65;;;10.30;99.90;;;;;;5044244;28;20196;-69
2022/01/03 08:07:19;;;;;;;10.52;9.43;;;10.40;99.90;;;;;;5050765;28;20225;-69
2022/01/03 08:09:46;;;;;;;13.23;10.20;;;10.40;99.90;;;;;;5052788;28;20205;-69
2022/01/03 08:12:16;;;;;;;13.10;9.95;;;10.40;99.90;;;;;;5051503;28;20333;-69
2022/01/03 08:14:49;;;;;;;13.75;11.02;;;10.50;99.90;;;;;;5040940;28;20717;-70
2022/01/03 08:17:16;;;;;;;11.10;9.70;;;10.50;99.90;;;;;;5043057;28;20222;-69
2022/01/03 08:19:53;;;;;;;11.18;9.32;;;10.60;99.90;;;;;;5050602;28;20169;-69
2022/01/03 08:22:20;;;;;;;12.05;10.48;;;10.60;99.90;;;;;;5032717;28;20646;-73
2022/01/03 08:24:49;;;;;;;11.25;9.38;;;10.60;99.90;;;;;;5046067;28;20174;-72
2022/01/03 08:27:16;;;;;;;12.25;9.50;;;10.70;99.90;;;;;;5033655;28;20205;-71
2022/01/03 08:29:47;;;;;;;10.40;9.30;;;10.70;99.90;;;;;;5032753;28;20217;-71
2022/01/03 08:32:15;;;;;;;12.93;10.02;;;10.70;99.90;;;;;;5030840;28;20596;-71
2022/01/03 08:35:04;;;;;;;19.25;14.38;;;10.80;99.90;;;;;;5033227;28;20185;-71
2022/01/03 08:37:31;;;;;;;17.77;13.20;;;10.80;99.90;;;;;;5033352;28;20206;-71
2022/01/03 08:40:07;;;;;;;15.75;13.73;;;10.80;99.90;;;;;;5035345;28;20239;-71
2022/01/03 08:42:42;;;;;;;18.90;14.05;;;10.90;99.90;;;;;;5036405;28;20221;-69
2022/01/03 08:45:18;;;;;;;16.27;13.77;;;10.90;99.90;;;;;;5036986;28;20177;-68
2022/01/03 08:47:49;;;;;;;17.40;12.13;;;10.90;99.90;;;;;;5032269;28;20220;-71
2022/01/03 08:50:17;;;;;;;14.45;11.95;;;10.90;99.90;;;;;;5035450;28;20300;-69
2022/01/03 08:52:47;;;;;;;13.48;12.05;;;11.00;99.90;;;;;;5035508;28;20225;-69
2022/01/03 08:55:15;;;;;;;14.23;12.68;;;11.00;99.90;;;;;;5029113;28;20198;-68
2022/01/03 08:57:43;;;;;;;18.23;13.30;;;11.00;99.90;;;;;;5052521;28;20202;-69
2022/01/03 09:00:11;;;;;;;15.98;12.88;;;11.00;99.90;;;;;;5036335;28;20182;-69
2022/01/03 09:02:38;;;;;;;16.92;14.05;;;11.00;99.90;;;;;;5033181;28;20218;-68
2022/01/03 09:05:05;;;;;;;27.80;20.95;;;11.00;99.90;;;;;;5033494;28;20185;-72
2022/01/03 09:07:32;;;;;;;21.90;18.13;;;11.00;99.90;;;;;;5036623;28;20205;-69
2022/01/03 09:10:05;;;;;;;23.88;17.63;;;11.00;99.90;;;;;;5026658;28;20236;-69
2022/01/03 09:12:48;;;;;;;23.90;18.67;;;11.10;99.90;;;;;;5036133;28;20645;-69
2022/01/03 09:15:19;;;;;;;23.15;14.48;;;11.10;99.90;;;;;;5056024;28;20654;-69
2022/01/03 09:17:48;;;;;;;16.48;13.75;;;11.10;99.90;;;;;;5055091;28;20205;-72
2022/01/03 09:20:21;;;;;;;36.70;26.55;;;11.20;99.90;;;;;;5053297;28;20205;-72
2022/01/03 09:22:51;;;;;;;29.55;22.65;;;11.20;99.90;;;;;;5053417;28;20272;-69
2022/01/03 09:30:45;;;;;;;15.18;10.95;;;11.30;99.90;;;;;;5073931;28;20211;-69
2022/01/03 09:33:12;;;;;;;12.52;10.15;;;11.30;99.90;;;;;;5054220;28;20228;-69
2022/01/03 09:35:40;;;;;;;12.95;10.77;;;11.30;99.90;;;;;;5053271;28;20203;-70
2022/01/03 09:41:10;;;;;;;15.48;11.60;;;11.40;99.90;;;;;;5053125;28;20275;-69
2022/01/03 09:44:00;;;;;;;12.02;10.18;;;11.40;99.90;;;;;;5070411;28;20241;-69
2022/01/03 09:46:35;;;;;;;15.98;12.57;;;11.40;99.90;;;;;;5044651;28;20680;-69
2022/01/03 09:49:15;;;;;;;20.67;14.00;;;11.40;99.90;;;;;;5055561;28;20292;-72
2022/01/03 09:51:48;;;;;;;18.25;14.35;;;11.40;99.90;;;;;;5055164;28;20229;-70
2022/01/03 09:54:21;;;;;;;13.13;11.07;;;11.40;99.90;;;;;;5054950;28;20571;-69
2022/01/03 09:56:55;;;;;;;22.30;19.55;;;11.40;99.90;;;;;;5066941;28;20200;-71
2022/01/03 09:59:24;;;;;;;17.30;14.27;;;11.40;99.90;;;;;;5054058;28;20177;-69
2022/01/03 10:02:00;;;;;;;18.17;15.73;;;11.40;99.90;;;;;;5034515;28;20196;-72
2022/01/03 10:04:28;;;;;;;16.40;14.18;;;11.40;99.90;;;;;;5033972;28;20185;-72
2022/01/03 10:06:55;;;;;;;16.95;11.80;;;11.40;99.90;;;;;;5040788;28;20414;-72
2022/01/03 10:09:25;;;;;;;17.17;13.75;;;11.40;99.90;;;;;;5052337;28;20544;-72
2022/01/03 10:11:51;;;;;;;15.75;12.70;;;11.40;99.90;;;;;;5053840;28;20220;-69
2022/01/03 10:14:33;;;;;;;17.88;12.93;;;11.40;99.90;;;;;;5071784;28;20229;-72
2022/01/03 10:17:06;;;;;;;13.32;10.20;;;11.50;99.90;;;;;;5050257;28;20177;-69
2022/01/03 10:19:53;;;;;;;14.57;11.23;;;11.50;99.90;;;;;;5052789;28;20204;-69
2022/01/03 10:22:28;;;;;;;13.35;10.65;;;11.50;99.90;;;;;;5053505;28;20270;-72
2022/01/03 10:25:41;;;;;;;16.20;11.25;;;11.50;99.90;;;;;;5053219;28;20176;-72
2022/01/03 10:28:37;;;;;;;12.20;9.50;;;11.50;99.90;;;;;;5059228;28;20213;-69
2022/01/03 10:31:21;;;;;;;11.10;8.70;;;11.60;99.90;;;;;;5051592;28;20211;-69
2022/01/03 10:34:05;;;;;;;12.48;8.23;;;11.60;99.90;;;;;;5048860;28;20213;-69
2022/01/03 10:36:39;;;;;;;17.17;11.07;;;11.60;99.90;;;;;;5051905;28;20204;-72
2022/01/03 10:39:34;;;;;;;19.27;12.48;;;11.70;99.90;;;;;;5052482;28;20200;-71
2022/01/03 10:42:18;;;;;;;18.17;12.20;;;11.70;99.90;;;;;;5052938;28;20185;-69
2022/01/03 10:44:46;;;;;;;10.65;8.93;;;11.70;99.90;;;;;;5050078;28;20192;-69
2022/01/03 10:47:30;;;;;;;10.43;8.50;;;11.70;99.90;;;;;;5050638;28;20616;-72
2022/01/03 10:49:58;;;;;;;12.60;9.73;;;11.70;99.90;;;;;;5050452;28;20200;-69
2022/01/03 10:52:29;;;;;;;12.43;10.68;;;11.70;99.90;;;;;;5048482;28;20520;-71
2022/01/03 10:55:14;;;;;;;31.52;22.90;;;11.70;99.90;;;;;;5048011;28;20684;-69
2022/01/03 10:58:01;;;;;;;9.40;7.10;;;11.80;99.90;;;;;;5050464;28;20557;-72
2022/01/03 11:00:45;;;;;;;11.18;8.63;;;11.80;99.90;;;;;;5048812;28;20171;-72
2022/01/03 11:03:39;;;;;;;10.60;8.73;;;11.90;99.90;;;;;;5048984;28;20192;-71
2022/01/03 11:06:24;;;;;;;8.13;7.27;;;11.90;99.90;;;;;;5049361;28;20847;-72
2022/01/03 11:11:55;;;;;;;18.75;16.83;;;11.90;99.90;;;;;;5064545;28;20330;-69
2022/01/03 11:14:45;;;;;;;9.65;8.65;;;12.00;99.90;;;;;;5038206;28;20229;-71
2022/01/03 11:17:43;;;;;;;13.68;10.70;;;12.00;99.90;;;;;;5048819;28;20189;-70
2022/01/03 11:20:23;;;;;;;7.57;6.00;;;12.00;99.90;;;;;;5042424;28;20299;-72
2022/01/03 11:22:52;;;;;;;8.02;6.82;;;12.10;99.90;;;;;;5049818;28;20205;-72
2022/01/03 11:25:31;;;;;;;7.85;7.05;;;12.10;99.90;;;;;;5048950;28;20217;-70
2022/01/03 11:28:08;;;;;;;8.77;7.75;;;12.10;99.90;;;;;;5048338;28;20197;-69
2022/01/03 11:30:38;;;;;;;8.05;6.60;;;12.20;99.90;;;;;;5048072;28;20446;-72
2022/01/03 11:33:11;;;;;;;17.52;12.82;;;12.20;99.90;;;;;;5051270;28;20213;-72
2022/01/03 11:35:47;;;;;;;29.15;25.70;;;12.10;99.90;;;;;;5051915;28;20185;-72
2022/01/03 11:38:23;;;;;;;29.80;26.75;;;12.20;99.90;;;;;;5052788;28;20205;-69
2022/01/03 11:40:52;;;;;;;32.55;26.83;;;12.20;99.90;;;;;;5052435;28;20622;-69
2022/01/03 11:43:21;;;;;;;40.28;32.65;;;12.20;99.90;;;;;;5053049;28;20193;-69
2022/01/03 11:45:49;;;;;;;24.60;18.65;;;12.20;99.90;;;;;;5051882;28;20185;-72
2022/01/03 11:48:15;;;;;;;35.70;31.98;;;12.10;99.90;;;;;;5049151;28;20197;-72
2022/01/03 11:50:44;;;;;;;29.80;26.90;;;12.20;99.90;;;;;;5067037;28;20268;-72
2022/01/03 11:53:20;;;;;;;36.35;32.85;;;12.10;99.90;;;;;;5052736;28;20229;-69
2022/01/03 11:55:53;;;;;;;22.85;20.58;;;12.10;99.90;;;;;;5050308;28;20185;-72
2022/01/03 11:58:45;;;;;;;11.65;10.45;;;12.20;99.90;;;;;;5051295;28;20300;-72
2022/01/03 12:04:02;;;;;;;13.10;9.88;;;12.30;99.90;;;;;;5071156;28;20231;-69
2022/01/03 12:06:32;;;;;;;8.70;7.47;;;12.30;99.90;;;;;;5050985;28;20238;-72
2022/01/03 12:09:09;;;;;;;9.70;8.70;;;12.30;99.90;;;;;;5047412;28;20228;-69
2022/01/03 12:11:53;;;;;;;13.13;8.70;;;12.40;99.90;;;;;;5046423;28;20495;-69
2022/01/03 12:14:23;;;;;;;9.95;8.95;;;12.50;99.90;;;;;;5049224;28;20593;-72
2022/01/03 12:16:51;;;;;;;18.58;8.00;;;12.50;99.90;;;;;;5045309;28;20217;-70
2022/01/03 12:19:31;;;;;;;8.83;7.40;;;12.60;99.90;;;;;;5066772;28;20868;-69
2022/01/03 12:22:07;;;;;;;7.55;6.65;;;12.60;99.90;;;;;;5044705;28;20957;-72
2022/01/03 12:24:35;;;;;;;11.35;7.13;;;12.70;99.90;;;;;;5067111;28;20203;-72
2022/01/03 12:27:16;;;;;;;11.70;8.13;;;12.70;99.90;;;;;;5061155;28;20189;-72
2022/01/03 12:29:56;;;;;;;8.57;6.97;;;12.80;99.90;;;;;;5046797;28;20450;-69
2022/01/03 12:32:37;;;;;;;9.30;7.23;;;12.80;99.90;;;;;;5051739;28;20485;-72
2022/01/03 12:35:19;;;;;;;12.10;6.40;;;12.80;99.90;;;;;;5051272;28;20433;-72
2022/01/03 12:37:57;;;;;;;12.03;9.40;;;12.80;99.90;;;;;;5051532;28;20469;-69
2022/01/03 12:40:32;;;;;;;12.97;8.93;;;12.80;99.90;;;;;;5056266;28;20437;-72
2022/01/03 12:43:06;;;;;;;9.50;6.90;;;12.80;99.90;;;;;;5054381;28;20443;-69
2022/01/03 12:45:33;;;;;;;8.73;7.13;;;12.80;99.90;;;;;;5051380;28;20482;-69
2022/01/03 12:48:18;;;;;;;7.37;6.60;;;12.80;99.90;;;;;;5049648;28;20457;-69
2022/01/03 12:50:54;;;;;;;8.27;7.17;;;12.80;99.90;;;;;;5051124;28;20836;-69
2022/01/03 12:53:43;;;;;;;7.03;5.73;;;12.80;99.90;;;;;;5052845;28;20517;-69
2022/01/03 12:56:19;;;;;;;9.37;7.27;;;12.80;99.90;;;;;;5066294;28;20460;-69
2022/01/03 12:58:59;;;;;;;7.47;5.70;;;12.70;99.90;;;;;;5052660;28;20540;-72
2022/01/03 13:02:00;;;;;;;8.17;6.80;;;12.70;99.90;;;;;;5066688;28;20456;-69
2022/01/03 13:04:34;;;;;;;8.70;6.30;;;12.70;99.90;;;;;;5041202;28;20433;-69
2022/01/03 13:07:06;;;;;;;9.10;7.90;;;12.70;99.90;;;;;;5061715;28;20442;-72
2022/01/03 13:09:39;;;;;;;9.50;7.13;;;12.70;99.90;;;;;;5067446;28;20281;-69
2022/01/03 13:12:10;;;;;;;9.37;6.77;;;12.70;99.90;;;;;;5053379;28;20481;-72
2022/01/03 13:14:38;;;;;;;7.97;7.13;;;12.70;99.90;;;;;;5051824;28;20953;-69
2022/01/03 13:17:07;;;;;;;13.13;8.02;;;12.70;99.90;;;;;;5046125;28;20433;-69
2022/01/03 13:19:44;;;;;;;13.10;11.50;;;12.70;99.90;;;;;;5053138;28;20180;-69
2022/01/03 13:22:15;;;;;;;15.73;13.50;;;12.70;99.90;;;;;;5051156;28;20480;-69
2022/01/03 13:24:49;;;;;;;13.40;10.70;;;12.70;99.90;;;;;;5062098;28;20445;-72
2022/01/03 13:27:22;;;;;;;18.83;15.00;;;12.70;99.90;;;;;;5047538;28;20855;-72
2022/01/03 13:29:55;;;;;;;12.07;9.45;;;12.70;99.90;;;;;;5047610;28;20181;-69